Time;durP1;ratioP1;P1;durP2;ratioP2;P2;SDS_P1;SDS_P2;PMS_P1;PMS_P2;Temp;Humidity;BMP_temperature;BMP_pressure;BME280_temperature;BME280_humidity;BME280_pressure;Samples;Min_cycle;Max_cycle;Signal;HPM_P1;HPM_P2
2023/05/07 00:00:08;;;;;;;;;;;;;;;27.32;31.42;100917.50;5092289;28;1976;-21
2023/05/07 00:02:34;;;;;;;;;;;;;;;27.59;31.18;100923.38;5086882;28;1131;-20
2023/05/07 00:05:00;;;;;;;;;;;;;;;27.85;30.74;100922.13;5098209;28;1063;-20
2023/05/07 00:07:25;;;;;;;;;;;;;;;27.75;31.03;100925.09;5086132;28;1111;-21
2023/05/07 00:09:51;;;;;;;;;;;;;;;26.90;32.13;100926.69;5093701;28;1038;-21
2023/05/07 00:12:16;;;;;;;;;;;;;;;27.84;30.83;100926.69;5099208;28;1129;-20
2023/05/07 00:14:42;;;;;;;;;;;;;;;28.31;30.22;100928.44;5097757;28;1057;-20
2023/05/07 00:17:07;;;;;;;;;;;;;;;28.92;28.90;100927.34;5086709;28;1158;-21
2023/05/07 00:19:33;;;;;;;;;;;;;;;28.45;29.73;100929.47;5098935;28;1893;-20
2023/05/07 00:21:58;;;;;;;;;;;;;;;28.28;29.84;100934.22;5092192;28;1133;-21
2023/05/07 00:24:24;;;;;;;;;;;;;;;28.16;30.48;100921.13;5079015;28;1011;-21
2023/05/07 00:26:50;;;;;;;;;;;;;;;28.08;30.34;100924.78;5085647;28;1027;-21
2023/05/07 00:29:15;;;;;;;;;;;;;;;28.14;30.28;100925.91;5080416;28;1117;-20
2023/05/07 00:31:41;;;;;;;;;;;;;;;28.04;30.51;100919.94;5078995;28;1031;-21
2023/05/07 00:34:06;;;;;;;;;;;;;;;27.86;30.92;100927.34;5091187;28;1214;-21
2023/05/07 00:36:32;;;;;;;;;;;;;;;27.11;32.20;100924.41;5098499;28;907;-20
2023/05/07 00:38:58;;;;;;;;;;;;;;;27.42;31.62;100923.50;5085497;28;1106;-21
2023/05/07 00:41:24;;;;;;;;;;;;;;;28.20;30.53;100935.97;5078757;28;1981;-20
2023/05/07 00:43:51;;;;;;;;;;;;;;;28.68;29.76;100937.47;5092142;28;1046;-21
2023/05/07 00:46:17;;;;;;;;;;;;;;;28.41;29.63;100944.41;5081057;28;1339;-21
2023/05/07 00:48:42;;;;;;;;;;;;;;;28.52;29.87;100943.94;5098276;28;1109;-21
2023/05/07 00:51:09;;;;;;;;;;;;;;;28.23;29.99;100941.00;5098421;28;1022;-20
2023/05/07 00:53:34;;;;;;;;;;;;;;;28.07;30.52;100950.16;5085170;28;1106;-21
2023/05/07 00:56:00;;;;;;;;;;;;;;;28.15;30.66;100948.38;5091783;28;1154;-21
2023/05/07 00:58:26;;;;;;;;;;;;;;;27.89;30.95;100949.66;5073787;28;1062;-21
2023/05/07 01:00:51;;;;;;;;;;;;;;;28.09;30.57;100950.78;5068654;28;1959;-20
2023/05/07 01:03:17;;;;;;;;;;;;;;;27.59;31.32;100953.91;5098708;28;1055;-20
2023/05/07 01:05:43;;;;;;;;;;;;;;;26.90;32.83;100955.53;5078599;28;1125;-21
2023/05/07 01:08:08;;;;;;;;;;;;;;;27.97;30.91;100955.81;5084609;28;1127;-22
2023/05/07 01:10:34;;;;;;;;;;;;;;;28.49;30.11;100963.25;5080167;28;1192;-20
2023/05/07 01:13:00;;;;;;;;;;;;;;;28.63;29.46;100968.84;5066451;28;1142;-21
2023/05/07 01:15:25;;;;;;;;;;;;;;;28.57;29.62;100965.88;5072441;28;1348;-20
2023/05/07 01:17:51;;;;;;;;;;;;;;;28.35;30.24;100965.78;5078943;28;1185;-21
2023/05/07 01:20:23;;;;;;;;;;;;;;;28.26;30.42;100961.44;5080164;28;1902;-21
2023/05/07 01:22:50;;;;;;;;;;;;;;;28.26;30.26;100963.31;5062582;28;1170;-21
2023/05/07 01:25:16;;;;;;;;;;;;;;;28.26;30.47;100958.72;5097380;28;852;-21
2023/05/07 01:27:46;;;;;;;;;;;;;;;28.05;30.48;100956.75;5078288;28;1317;-20
2023/05/07 01:30:12;;;;;;;;;;;;;;;28.33;30.44;100959.69;5059843;28;1178;-21
2023/05/07 01:32:50;;;;;;;;;;;;;;;28.83;29.42;100961.81;5091966;28;1159;-21
2023/05/07 01:35:20;;;;;;;;;;;;;;;28.77;29.57;100961.72;5069654;28;1217;-21
2023/05/07 01:37:46;;;;;;;;;;;;;;;28.51;30.14;100954.94;5094725;28;1154;-21
2023/05/07 01:40:12;;;;;;;;;;;;;;;28.44;30.06;100957.56;5079467;28;2005;-21
2023/05/07 01:42:37;;;;;;;;;;;;;;;28.23;30.55;100957.25;5078767;28;1136;-20
2023/05/07 01:45:03;;;;;;;;;;;;;;;28.19;30.60;100961.34;5079425;28;1194;-21
2023/05/07 01:47:29;;;;;;;;;;;;;;;27.93;31.29;100959.91;5084061;28;1217;-20
2023/05/07 01:49:55;;;;;;;;;;;;;;;28.18;30.69;100956.09;5068702;28;925;-20
2023/05/07 01:52:20;;;;;;;;;;;;;;;28.52;30.03;100960.16;5094646;28;1131;-21
2023/05/07 01:54:46;;;;;;;;;;;;;;;28.62;29.47;100953.63;5079473;28;1034;-21
2023/05/07 01:57:11;;;;;;;;;;;;;;;28.73;29.55;100951.28;5083506;28;1134;-21
2023/05/07 01:59:37;;;;;;;;;;;;;;;28.51;29.98;100955.78;5078491;28;1988;-21
2023/05/07 02:02:03;;;;;;;;;;;;;;;28.41;30.17;100953.34;5074306;28;1086;-21
2023/05/07 02:04:29;;;;;;;;;;;;;;;28.21;30.42;100950.34;5058943;28;1253;-20
2023/05/07 02:06:55;;;;;;;;;;;;;;;28.01;30.92;100939.22;5068762;28;1202;-20
2023/05/07 02:09:22;;;;;;;;;;;;;;;28.04;31.08;100937.00;5079294;28;1114;-21
2023/05/07 02:11:49;;;;;;;;;;;;;;;28.29;30.56;100939.44;5065783;28;1242;-21
2023/05/07 02:14:16;;;;;;;;;;;;;;;28.86;29.68;100933.53;5078578;28;1102;-21
2023/05/07 02:16:42;;;;;;;;;;;;;;;28.49;30.24;100936.19;5078100;28;1126;-20
2023/05/07 02:19:09;;;;;;;;;;;;;;;28.68;29.77;100933.91;5066984;28;1331;-20
2023/05/07 02:21:35;;;;;;;;;;;;;;;28.23;29.99;100941.00;5062391;28;1906;-21
2023/05/07 02:24:00;;;;;;;;;;;;;;;28.26;30.48;100931.66;5096904;28;1045;-21
2023/05/07 02:26:26;;;;;;;;;;;;;;;28.30;30.50;100929.44;5077807;28;1138;-21
2023/05/07 02:28:51;;;;;;;;;;;;;;;28.06;30.89;100934.09;5068227;28;1162;-21
2023/05/07 02:31:17;;;;;;;;;;;;;;;28.03;31.07;100935.31;5090182;28;1063;-21
2023/05/07 02:33:43;;;;;;;;;;;;;;;28.28;30.31;100931.50;5087126;28;1107;-21
2023/05/07 02:36:09;;;;;;;;;;;;;;;28.86;29.43;100938.94;5074999;28;1255;-21
2023/05/07 02:38:39;;;;;;;;;;;;;;;28.44;29.73;100938.63;5069323;28;1119;-21
2023/05/07 02:41:05;;;;;;;;;;;;;;;28.68;29.60;100936.63;5074142;28;1977;-21
2023/05/07 02:43:30;;;;;;;;;;;;;;;28.76;29.84;100936.50;5069057;28;1102;-20
2023/05/07 02:46:05;;;;;;;;;;;;;;;28.50;29.64;100942.44;5096387;28;1086;-21
2023/05/07 02:48:33;;;;;;;;;;;;;;;28.73;29.77;100945.88;5066001;28;1202;-21
2023/05/07 02:50:59;;;;;;;;;;;;;;;28.23;30.54;100943.72;5077327;28;1134;-21
2023/05/07 02:53:27;;;;;;;;;;;;;;;28.15;30.55;100943.81;5084300;28;1134;-21
2023/05/07 02:55:53;;;;;;;;;;;;;;;27.98;30.82;100951.25;5078012;28;1137;-21
2023/05/07 02:58:19;;;;;;;;;;;;;;;28.02;31.07;100952.56;5078259;28;1115;-21
2023/05/07 03:00:45;;;;;;;;;;;;;;;28.00;30.79;100954.59;5058439;28;1902;-21
2023/05/07 03:03:25;;;;;;;;;;;;;;;28.26;30.65;100956.03;5071369;28;1555;-21
2023/05/07 03:05:51;;;;;;;;;;;;;;;28.66;29.97;100950.34;5071201;28;1213;-21
2023/05/07 03:08:17;;;;;;;;;;;;;;;28.43;30.09;100955.88;5071580;28;1134;-21
2023/05/07 03:10:42;;;;;;;;;;;;;;;28.67;29.81;100948.47;5083973;28;1043;-21
2023/05/07 03:13:08;;;;;;;;;;;;;;;28.26;30.14;100949.78;5079894;28;1261;-21
2023/05/07 03:15:34;;;;;;;;;;;;;;;28.38;30.42;100945.59;5062332;28;1178;-21
2023/05/07 03:17:59;;;;;;;;;;;;;;;27.23;25.54;100952.66;5080388;28;1201;-22
2023/05/07 03:20:25;;;;;;;;;;;;;;;25.54;25.93;100951.56;5070078;28;1910;-22
2023/05/07 03:22:51;;;;;;;;;;;;;;;25.08;26.30;100955.50;5081733;28;1275;-22
2023/05/07 03:25:17;;;;;;;;;;;;;;;24.76;26.34;100951.66;5095743;28;1190;-22
2023/05/07 03:27:42;;;;;;;;;;;;;;;24.80;26.54;100958.41;5086755;28;1126;-21
2023/05/07 03:30:08;;;;;;;;;;;;;;;24.80;27.47;100955.72;5074057;28;1288;-21
2023/05/07 03:32:35;;;;;;;;;;;;;;;25.22;27.35;100955.88;5095313;28;1256;-21
2023/05/07 03:35:04;;;;;;;;;;;;;;;25.29;27.03;100957.72;5082009;28;1042;-21
2023/05/07 03:37:30;;;;;;;;;;;;;;;25.42;26.61;100954.53;5081394;28;1144;-21
2023/05/07 03:39:56;;;;;;;;;;;;;;;25.35;26.88;100963.47;5081919;28;1977;-21
2023/05/07 03:42:22;;;;;;;;;;;;;;;25.18;27.04;100964.28;5068374;28;1158;-21
2023/05/07 03:44:50;;;;;;;;;;;;;;;25.34;26.32;100969.88;5082149;28;1389;-21
2023/05/07 03:47:16;;;;;;;;;;;;;;;25.46;26.29;100975.78;5081513;28;1349;-21
2023/05/07 03:49:42;;;;;;;;;;;;;;;25.39;26.10;100975.59;5080955;28;1204;-21
2023/05/07 03:52:08;;;;;;;;;;;;;;;25.34;26.16;100976.06;5068376;28;1110;-21
2023/05/07 03:54:34;;;;;;;;;;;;;;;25.57;26.80;100975.47;5081808;28;1290;-21
2023/05/07 03:57:00;;;;;;;;;;;;;;;25.51;25.83;100978.78;5062519;28;1631;-20
2023/05/07 03:59:26;;;;;;;;;;;;;;;25.50;26.06;100987.91;5079686;28;1910;-21
2023/05/07 04:01:52;;;;;;;;;;;;;;;25.38;27.11;100993.59;5064804;28;1201;-21
2023/05/07 04:04:21;;;;;;;;;;;;;;;25.36;27.49;100992.91;5078139;28;1205;-21
2023/05/07 04:06:46;;;;;;;;;;;;;;;25.61;27.03;100997.53;5067327;28;1217;-21
2023/05/07 04:09:12;;;;;;;;;;;;;;;25.26;27.69;100992.22;5061318;28;1374;-21
2023/05/07 04:11:40;;;;;;;;;;;;;;;25.26;27.35;100992.22;5060645;28;1084;-21
2023/05/07 04:14:07;;;;;;;;;;;;;;;25.21;26.50;100998.09;5071054;28;1263;-21
2023/05/07 04:16:34;;;;;;;;;;;;;;;25.21;27.00;100994.59;5064749;28;1185;-21
2023/05/07 04:19:00;;;;;;;;;;;;;;;25.13;26.95;100993.53;5089159;28;1039;-21
2023/05/07 04:21:26;;;;;;;;;;;;;;;25.19;26.93;100998.25;5048486;28;1976;-21
2023/05/07 04:23:53;;;;;;;;;;;;;;;25.16;26.57;101000.44;5070403;28;1305;-21
2023/05/07 04:26:19;;;;;;;;;;;;;;;25.08;26.18;100995.88;5069529;28;1225;-21
2023/05/07 04:28:45;;;;;;;;;;;;;;;25.00;26.25;101002.09;5060897;28;1151;-21
2023/05/07 04:31:11;;;;;;;;;;;;;;;25.10;25.86;101001.94;5074326;28;1122;-21
2023/05/07 04:33:37;;;;;;;;;;;;;;;25.00;25.97;100993.16;5061106;28;1282;-20
2023/05/07 04:36:04;;;;;;;;;;;;;;;24.89;25.92;100999.66;5064388;28;1263;-21
2023/05/07 04:38:35;;;;;;;;;;;;;;;24.83;26.49;100998.44;5070019;28;1237;-21
2023/05/07 04:41:03;;;;;;;;;;;;;;;24.93;26.26;101004.59;5078517;28;1997;-21
2023/05/07 04:43:28;;;;;;;;;;;;;;;24.76;27.38;101003.63;5073469;28;1617;-21
2023/05/07 04:45:54;;;;;;;;;;;;;;;24.82;26.96;101007.53;5080897;28;1308;-21
2023/05/07 04:48:23;;;;;;;;;;;;;;;24.99;27.16;101008.47;5072857;28;1141;-22
2023/05/07 04:50:50;;;;;;;;;;;;;;;25.31;27.11;101003.34;5066938;28;1235;-20
2023/05/07 04:53:17;;;;;;;;;;;;;;;25.25;28.36;101012.09;5060935;28;1194;-20
2023/05/07 04:55:43;;;;;;;;;;;;;;;25.14;28.98;101010.53;5060730;28;1182;-21
2023/05/07 04:58:09;;;;;;;;;;;;;;;25.07;29.36;101007.66;5091118;28;1083;-20
2023/05/07 05:00:37;;;;;;;;;;;;;;;25.14;29.50;101003.28;5050784;28;1946;-21
2023/05/07 05:03:05;;;;;;;;;;;;;;;25.16;29.29;101005.81;5078890;28;1337;-20
2023/05/07 05:05:31;;;;;;;;;;;;;;;25.11;29.57;101008.19;5080156;28;1264;-20
2023/05/07 05:07:57;;;;;;;;;;;;;;;25.13;29.54;101014.22;5074381;28;1774;-21
2023/05/07 05:10:24;;;;;;;;;;;;;;;25.20;29.70;101015.28;5066726;28;1164;-20
2023/05/07 05:12:50;;;;;;;;;;;;;;;25.14;29.65;101014.06;5080485;28;1245;-20
2023/05/07 05:15:16;;;;;;;;;;;;;;;25.14;29.66;101024.84;5066198;28;1186;-21
2023/05/07 05:17:42;;;;;;;;;;;;;;;25.33;29.39;101020.19;5060364;28;1122;-21
2023/05/07 05:20:09;;;;;;;;;;;;;;;25.74;28.38;101019.44;5059907;28;1902;-21
2023/05/07 05:22:35;;;;;;;;;;;;;;;25.92;28.24;101021.97;5060210;28;1532;-21
2023/05/07 05:25:01;;;;;;;;;;;;;;;26.21;28.07;101027.84;5065227;28;1249;-20
2023/05/07 05:27:26;;;;;;;;;;;;;;;26.26;28.06;101019.25;5067344;28;1099;-20
2023/05/07 05:29:53;;;;;;;;;;;;;;;26.40;27.83;101026.69;5059980;28;1387;-21
2023/05/07 05:32:18;;;;;;;;;;;;;;;26.41;27.98;101025.69;5059766;28;1867;-21
2023/05/07 05:34:44;;;;;;;;;;;;;;;26.51;27.86;101022.78;5058908;28;1245;-20
2023/05/07 05:37:10;;;;;;;;;;;;;;;26.50;28.62;101029.22;5090380;28;1109;-21
2023/05/07 05:39:36;;;;;;;;;;;;;;;26.52;28.51;101029.88;5088540;28;1910;-21
2023/05/07 05:42:02;;;;;;;;;;;;;;;26.67;28.29;101023.75;5067695;28;1275;-20
2023/05/07 05:44:27;;;;;;;;;;;;;;;26.82;28.35;101028.44;5077852;28;1074;-21
2023/05/07 05:46:55;;;;;;;;;;;;;;;26.75;28.24;101033.69;5089957;28;992;-21
2023/05/07 05:49:21;;;;;;;;;;;;;;;26.84;28.29;101029.94;5078082;28;1087;-21
2023/05/07 05:51:47;;;;;;;;;;;;;;;26.83;28.47;101044.44;5061169;28;1499;-20
2023/05/07 05:54:13;;;;;;;;;;;;;;;26.87;28.62;101043.09;5059580;28;1232;-20
2023/05/07 05:56:39;;;;;;;;;;;;;;;27.01;28.47;101040.66;5071757;28;1349;-20
2023/05/07 05:59:05;;;;;;;;;;;;;;;26.89;28.81;101053.72;5065517;28;1126;-21
2023/05/07 06:01:30;;;;;;;;;;;;;;;26.90;28.73;101052.69;5067233;28;1984;-20
2023/05/07 06:04:00;;;;;;;;;;;;;;;26.99;28.96;101046.25;5068380;28;1426;-21
2023/05/07 06:06:25;;;;;;;;;;;;;;;26.98;28.78;101051.81;5083445;28;1162;-21
2023/05/07 06:08:51;;;;;;;;;;;;;;;27.04;28.61;101044.91;5060005;28;1121;-20
2023/05/07 06:11:22;;;;;;;;;;;;;;;27.12;28.49;101043.03;5059031;28;1257;-20
2023/05/07 06:13:49;;;;;;;;;;;;;;;26.34;30.04;101045.41;5077180;28;1155;-20
2023/05/07 06:16:15;;;;;;;;;;;;;;;26.16;30.36;101046.41;5079964;28;1102;-20
2023/05/07 06:18:40;;;;;;;;;;;;;;;26.08;30.25;101044.56;5097237;28;1059;-20
2023/05/07 06:21:06;;;;;;;;;;;;;;;26.07;30.02;101047.41;5083428;28;1910;-20
2023/05/07 06:23:35;;;;;;;;;;;;;;;26.08;30.15;101051.78;5058895;28;1080;-20
2023/05/07 06:26:01;;;;;;;;;;;;;;;26.38;29.30;101055.69;5058850;28;1118;-20
2023/05/07 06:28:35;;;;;;;;;;;;;;;26.49;29.79;101053.66;5087218;28;926;-20
2023/05/07 06:31:12;;;;;;;;;;;;;;;26.53;29.60;101049.59;5073386;28;1260;-21
2023/05/07 06:33:38;;;;;;;;;;;;;;;26.55;29.56;101049.41;5069240;28;1150;-20
2023/05/07 06:36:04;;;;;;;;;;;;;;;26.50;29.98;101042.69;5092837;28;1129;-21
2023/05/07 06:38:30;;;;;;;;;;;;;;;26.63;29.94;101044.00;5078131;28;1189;-20
2023/05/07 06:40:57;;;;;;;;;;;;;;;26.67;29.46;101049.91;5062284;28;1976;-20
2023/05/07 06:43:22;;;;;;;;;;;;;;;26.65;29.64;101044.69;5058304;28;1207;-20
2023/05/07 06:46:08;;;;;;;;;;;;;;;26.70;29.84;101036.06;5053912;28;1246;-20
2023/05/07 06:48:34;;;;;;;;;;;;;;;26.71;29.51;101038.56;5075075;28;1178;-21
2023/05/07 06:51:04;;;;;;;;;;;;;;;26.86;29.44;101043.28;5076370;28;1341;-20
2023/05/07 06:53:30;;;;;;;;;;;;;;;26.69;29.62;101042.47;5083517;28;1102;-20
2023/05/07 06:55:56;;;;;;;;;;;;;;;26.70;29.79;101044.16;5070891;28;1250;-20
2023/05/07 06:58:22;;;;;;;;;;;;;;;26.71;29.79;101043.97;5088874;28;1081;-20
2023/05/07 07:00:48;;;;;;;;;;;;;;;26.83;29.47;101043.59;5064506;28;1981;-20
2023/05/07 07:03:14;;;;;;;;;;;;;;;26.76;29.17;101044.31;5070781;28;1153;-20
2023/05/07 07:05:43;;;;;;;;;;;;;;;26.94;29.13;101042.41;5077959;28;1166;-20
2023/05/07 07:08:09;;;;;;;;;;;;;;;26.76;29.39;101038.06;5057923;28;1344;-20
2023/05/07 07:10:35;;;;;;;;;;;;;;;26.85;29.39;101046.97;5077495;28;1257;-20
2023/05/07 07:13:02;;;;;;;;;;;;;;;26.48;29.26;101047.41;5078095;28;1283;-20
2023/05/07 07:15:28;;;;;;;;;;;;;;;26.34;26.66;101040.84;5077231;28;1226;-20
2023/05/07 07:17:55;;;;;;;;;;;;;;;26.12;26.21;101043.22;5064258;28;1119;-21
2023/05/07 07:20:22;;;;;;;;;;;;;;;26.01;26.46;101047.06;5057853;28;1906;-21
2023/05/07 07:22:48;;;;;;;;;;;;;;;25.87;25.28;101045.91;5076443;28;1027;-20
2023/05/07 07:25:15;;;;;;;;;;;;;;;25.96;24.56;101054.00;5070518;28;1239;-20
2023/05/07 07:27:41;;;;;;;;;;;;;;;25.74;24.92;101053.63;5064070;28;1194;-20
2023/05/07 07:30:07;;;;;;;;;;;;;;;25.93;24.25;101052.47;5065232;28;1385;-20
2023/05/07 07:32:35;;;;;;;;;;;;;;;25.79;24.16;101059.38;5064146;28;1113;-20
2023/05/07 07:35:01;;;;;;;;;;;;;;;25.75;24.43;101058.00;5070369;28;1144;-21
2023/05/07 07:37:27;;;;;;;;;;;;;;;25.41;24.39;101055.22;5058565;28;1333;-20
2023/05/07 07:39:53;;;;;;;;;;;;;;;25.53;23.78;101041.44;5069996;28;1975;-20
2023/05/07 07:42:20;;;;;;;;;;;;;;;25.59;23.68;101053.41;5071393;28;1209;-20
2023/05/07 07:44:45;;;;;;;;;;;;;;;25.61;23.81;101048.72;5058102;28;1149;-20
2023/05/07 07:47:13;;;;;;;;;;;;;;;25.63;24.30;101052.09;5071394;28;1181;-20
2023/05/07 07:49:40;;;;;;;;;;;;;;;26.23;26.21;101050.09;5057782;28;1292;-21
2023/05/07 07:52:08;;;;;;;;;;;;;;;26.39;25.49;101061.94;5076040;28;1138;-20
2023/05/07 07:54:35;;;;;;;;;;;;;;;26.26;26.08;101062.41;5057715;28;1333;-20
2023/05/07 07:57:02;;;;;;;;;;;;;;;26.13;26.04;101054.81;5057839;28;1226;-21
2023/05/07 07:59:30;;;;;;;;;;;;;;;26.09;26.22;101046.22;5070691;28;1226;-21
2023/05/07 08:01:56;;;;;;;;;;;;;;;26.15;26.47;101058.19;5079441;28;1972;-20
2023/05/07 08:04:24;;;;;;;;;;;;;;;26.57;26.10;101056.34;5063379;28;1300;-20
2023/05/07 08:06:50;;;;;;;;;;;;;;;26.90;25.97;101061.66;5069502;28;2039;-21
2023/05/07 08:09:16;;;;;;;;;;;;;;;27.18;25.64;101060.38;5072039;28;1234;-21
2023/05/07 08:11:41;;;;;;;;;;;;;;;27.14;25.99;101056.34;5061120;28;1134;-21
2023/05/07 08:14:07;;;;;;;;;;;;;;;27.17;26.22;101057.84;5061317;28;1181;-22
2023/05/07 08:16:33;;;;;;;;;;;;;;;27.22;26.09;101052.75;5077813;28;1140;-20
2023/05/07 08:19:00;;;;;;;;;;;;;;;27.09;26.32;101059.56;5060906;28;1277;-20
2023/05/07 08:21:26;;;;;;;;;;;;;;;27.28;26.04;101059.34;5063268;28;1927;-20
2023/05/07 08:23:52;;;;;;;;;;;;;;;27.22;26.87;101050.06;5080629;28;1647;-20
2023/05/07 08:26:17;;;;;;;;;;;;;;;27.34;26.76;101048.63;5067304;28;1221;-20
2023/05/07 08:28:43;;;;;;;;;;;;;;;27.37;26.44;101045.59;5068237;28;1111;-22
2023/05/07 08:31:09;;;;;;;;;;;;;;;27.41;26.61;101053.34;5078644;28;1078;-20
2023/05/07 08:33:38;;;;;;;;;;;;;;;26.65;27.56;101053.63;5070243;28;1222;-20
2023/05/07 08:36:04;;;;;;;;;;;;;;;26.44;28.08;101064.97;5064517;28;1347;-20
2023/05/07 08:38:31;;;;;;;;;;;;;;;26.48;28.42;101051.94;5078607;28;1090;-20
2023/05/07 08:40:56;;;;;;;;;;;;;;;26.39;28.22;101048.44;5060366;28;1988;-20
2023/05/07 08:43:22;;;;;;;;;;;;;;;26.32;28.36;101044.72;5070357;28;1138;-20
2023/05/07 08:45:47;;;;;;;;;;;;;;;26.40;28.33;101055.50;5077901;28;1261;-20
2023/05/07 08:48:16;;;;;;;;;;;;;;;26.83;27.98;101057.09;5064137;28;1435;-20
2023/05/07 08:50:44;;;;;;;;;;;;;;;27.15;27.16;101044.53;5063584;28;1230;-20
2023/05/07 08:53:10;;;;;;;;;;;;;;;27.39;26.75;101046.25;5063654;28;1164;-20
2023/05/07 08:55:36;;;;;;;;;;;;;;;27.38;27.52;101052.69;5063291;28;1584;-20
2023/05/07 08:58:02;;;;;;;;;;;;;;;27.54;26.58;101045.50;5070515;28;1272;-20
2023/05/07 09:00:29;;;;;;;;;;;;;;;27.42;27.20;101055.88;5066724;28;1977;-20
2023/05/07 09:02:57;;;;;;;;;;;;;;;27.53;26.76;101049.22;5069444;28;1221;-20
2023/05/07 09:05:23;;;;;;;;;;;;;;;27.48;27.32;101048.91;5071314;28;1322;-20
2023/05/07 09:07:50;;;;;;;;;;;;;;;27.45;27.13;101043.84;5076682;28;1236;-20
2023/05/07 09:10:16;;;;;;;;;;;;;;;27.40;26.93;101044.41;5061701;28;1352;-20
2023/05/07 09:12:42;;;;;;;;;;;;;;;27.27;27.04;101044.97;5068791;28;968;-20
2023/05/07 09:15:10;;;;;;;;;;;;;;;26.97;27.95;101044.75;5064509;28;1265;-20
2023/05/07 09:17:36;;;;;;;;;;;;;;;26.95;27.95;101042.22;5085832;28;968;-21
2023/05/07 09:20:03;;;;;;;;;;;;;;;27.23;26.96;101038.22;5059779;28;1971;-20
2023/05/07 09:22:31;;;;;;;;;;;;;;;27.57;26.74;101047.84;5077899;28;1233;-20
2023/05/07 09:25:01;;;;;;;;;;;;;;;27.42;27.26;101036.13;5079918;28;1484;-21
2023/05/07 09:27:27;;;;;;;;;;;;;;;27.45;27.42;101039.31;5067466;28;1296;-20
2023/05/07 09:29:54;;;;;;;;;;;;;;;27.49;27.97;101037.09;5059634;28;1150;-20
2023/05/07 09:32:20;;;;;;;;;;;;;;;27.52;28.23;101031.31;5072029;28;1181;-21
2023/05/07 09:34:47;;;;;;;;;;;;;;;27.60;28.51;101019.63;5084119;28;1229;-21
2023/05/07 09:37:17;;;;;;;;;;;;;;;27.58;29.28;101016.25;5067066;28;1125;-21
2023/05/07 09:39:43;;;;;;;;;;;;;;;27.65;29.48;101016.38;5045669;28;2040;-21
2023/05/07 09:42:11;;;;;;;;;;;;;;;27.59;29.57;101013.34;5071905;28;1285;-21
2023/05/07 09:44:37;;;;;;;;;;;;;;;27.69;29.79;101015.88;5079361;28;1137;-20
2023/05/07 09:47:06;;;;;;;;;;;;;;;27.71;30.06;101019.22;5079472;28;1335;-20
2023/05/07 09:49:37;;;;;;;;;;;;;;;27.73;30.66;101011.78;5059561;28;1125;-21
2023/05/07 09:52:08;;;;;;;;;;;;;;;27.79;30.68;101022.91;5059103;28;1273;-20
2023/05/07 09:54:40;;;;;;;;;;;;;;;27.76;30.88;101013.25;5068034;28;1405;-20
2023/05/07 09:57:06;;;;;;;;;;;;;;;27.83;31.16;101019.63;5079126;28;1236;-21
2023/05/07 09:59:33;;;;;;;;;;;;;;;27.81;32.11;101024.38;5079076;28;1244;-20
2023/05/07 10:02:01;;;;;;;;;;;;;;;27.91;31.40;101028.72;5065460;28;1898;-20
2023/05/07 10:04:28;;;;;;;;;;;;;;;27.41;29.38;101027.16;5058878;28;1138;-20
2023/05/07 10:06:55;;;;;;;;;;;;;;;26.97;29.50;101017.75;5076050;28;1286;-20
2023/05/07 10:09:21;;;;;;;;;;;;;;;26.85;29.23;101020.84;5059053;28;1551;-20
2023/05/07 10:11:48;;;;;;;;;;;;;;;26.75;28.78;101006.69;5062172;28;1326;-20
2023/05/07 10:14:14;;;;;;;;;;;;;;;26.72;28.41;101007.91;5086803;28;1154;-20
2023/05/07 10:16:41;;;;;;;;;;;;;;;26.73;28.35;101024.91;5060182;28;1182;-20
2023/05/07 10:19:11;;;;;;;;;;;;;;;26.76;28.56;101019.16;5075307;28;1241;-20
2023/05/07 10:21:39;;;;;;;;;;;;;;;26.73;28.80;101035.72;5058438;28;1977;-21
2023/05/07 10:24:06;;;;;;;;;;;;;;;26.69;28.88;101021.75;5076792;28;1070;-20
2023/05/07 10:26:33;;;;;;;;;;;;;;;26.78;28.78;101011.75;5076069;28;1347;-20
2023/05/07 10:29:01;;;;;;;;;;;;;;;26.87;28.81;101013.41;5073859;28;1252;-20
2023/05/07 10:31:39;;;;;;;;;;;;;;;27.02;29.86;101010.84;5048917;28;1233;-21
2023/05/07 10:34:09;;;;;;;;;;;;;;;27.22;28.83;100991.50;5078203;28;2127;-20
2023/05/07 10:36:35;;;;;;;;;;;;;;;26.64;29.06;100976.38;5075163;28;1263;-20
2023/05/07 10:39:01;;;;;;;;;;;;;;;26.60;28.71;100979.59;5058335;28;1332;-20
2023/05/07 10:41:27;;;;;;;;;;;;;;;26.56;28.88;100981.78;5068634;28;1980;-21
2023/05/07 10:43:53;;;;;;;;;;;;;;;26.48;28.94;100998.00;5058429;28;1183;-20
2023/05/07 10:46:23;;;;;;;;;;;;;;;26.61;29.19;100989.38;5062525;28;1353;-21
2023/05/07 10:49:03;;;;;;;;;;;;;;;26.58;28.88;100997.81;5065169;28;1241;-20
2023/05/07 10:51:36;;;;;;;;;;;;;;;26.70;29.11;100996.44;5067273;28;1110;-20
2023/05/07 10:54:14;;;;;;;;;;;;;;;26.75;28.70;100996.75;5074387;28;1269;-21
2023/05/07 10:56:47;;;;;;;;;;;;;;;26.80;28.93;101009.72;5058235;28;1255;-20
2023/05/07 10:59:20;;;;;;;;;;;;;;;26.77;28.77;101016.31;5078220;28;1156;-21
2023/05/07 11:01:52;;;;;;;;;;;;;;;26.67;28.55;101012.13;5063517;28;1973;-21
2023/05/07 11:04:27;;;;;;;;;;;;;;;26.72;28.80;101012.44;5074747;28;1261;-20
2023/05/07 11:07:09;;;;;;;;;;;;;;;26.66;28.62;101013.97;5076601;28;1249;-20
2023/05/07 11:10:03;;;;;;;;;;;;;;;26.66;28.74;101008.56;5064465;28;1600;-21
2023/05/07 11:12:50;;;;;;;;;;;;;;;26.67;28.50;101017.53;5088121;28;1071;-20
2023/05/07 11:15:33;;;;;;;;;;;;;;;26.70;28.45;101009.06;5064293;28;1177;-20
2023/05/07 11:18:03;;;;;;;;;;;;;;;26.72;28.24;101015.16;5065527;28;1185;-21
2023/05/07 11:20:53;;;;;;;;;;;;;;;26.57;28.78;101012.31;5058243;28;1906;-20
2023/05/07 11:23:34;;;;;;;;;;;;;;;26.81;28.76;101018.66;5064003;28;1465;-20
2023/05/07 11:26:27;;;;;;;;;;;;;;;27.18;27.84;101013.63;5068729;28;1285;-20
2023/05/07 11:28:53;;;;;;;;;;;;;;;27.29;27.83;101025.88;5057524;28;1167;-21
2023/05/07 11:31:26;;;;;;;;;;;;;;;27.30;27.89;101025.72;5088906;28;1054;-20
2023/05/07 11:33:53;;;;;;;;;;;;;;;27.43;27.49;101024.28;5061316;28;1229;-20
2023/05/07 11:36:21;;;;;;;;;;;;;;;27.43;27.64;101025.13;5081145;28;1145;-20
2023/05/07 11:38:49;;;;;;;;;;;;;;;27.49;27.50;101028.97;5087612;28;1042;-21
2023/05/07 11:41:15;;;;;;;;;;;;;;;27.28;27.43;101021.53;5083918;28;1902;-20
2023/05/07 11:44:07;;;;;;;;;;;;;;;27.30;27.84;101033.81;5087470;28;1066;-20
2023/05/07 11:46:32;;;;;;;;;;;;;;;27.33;27.93;101032.59;5076083;28;1835;-21
2023/05/07 11:48:58;;;;;;;;;;;;;;;27.43;27.27;101025.13;5082204;28;1265;-21
2023/05/07 11:51:25;;;;;;;;;;;;;;;27.41;27.45;101019.06;5090226;28;1105;-20
2023/05/07 11:53:51;;;;;;;;;;;;;;;27.43;27.69;101021.56;5085285;28;1217;-20
2023/05/07 11:56:17;;;;;;;;;;;;;;;27.38;27.65;101024.81;5088531;28;1090;-20
2023/05/07 11:58:43;;;;;;;;;;;;;;;27.56;27.55;101031.81;5085987;28;1246;-20
2023/05/07 12:01:09;;;;;;;;;;;;;;;27.37;27.71;101026.69;5099178;28;1973;-20
2023/05/07 12:03:37;;;;;;;;;;;;;;;27.38;27.77;101025.66;5096851;28;1062;-20
2023/05/07 12:06:02;;;;;;;;;;;;;;;27.22;28.17;101018.50;5081416;28;1125;-21
2023/05/07 12:08:28;;;;;;;;;;;;;;;27.16;27.88;101021.91;5085530;28;1055;-20
2023/05/07 12:10:53;;;;;;;;;;;;;;;27.18;27.72;101021.72;5081183;28;1164;-21
2023/05/07 12:13:20;;;;;;;;;;;;;;;27.12;28.13;101032.22;5096349;28;1065;-20
2023/05/07 12:15:46;;;;;;;;;;;;;;;27.13;28.13;101017.69;5088747;28;1121;-20
2023/05/07 12:18:12;;;;;;;;;;;;;;;27.11;28.01;101027.00;5082830;28;1090;-20
2023/05/07 12:20:37;;;;;;;;;;;;;;;27.02;28.59;101018.94;5088002;28;1973;-20
2023/05/07 12:23:03;;;;;;;;;;;;;;;27.23;27.93;101017.47;5082786;28;1185;-21
2023/05/07 12:25:35;;;;;;;;;;;;;;;27.16;28.04;101019.19;5078946;28;1012;-20
2023/05/07 12:28:01;;;;;;;;;;;;;;;27.16;28.19;101023.78;5082161;28;1186;-20
2023/05/07 12:30:27;;;;;;;;;;;;;;;27.17;27.81;101014.66;5088170;28;919;-20
2023/05/07 12:32:53;;;;;;;;;;;;;;;27.06;27.98;101024.81;5092437;28;1039;-20
2023/05/07 12:35:26;;;;;;;;;;;;;;;27.05;28.10;101009.63;5089551;28;1137;-21
2023/05/07 12:37:55;;;;;;;;;;;;;;;27.24;27.58;101010.22;5093489;28;1110;-20
2023/05/07 12:40:20;;;;;;;;;;;;;;;27.20;27.79;101015.13;5078787;28;1910;-21
2023/05/07 12:42:46;;;;;;;;;;;;;;;27.21;27.65;101003.31;5091764;28;1079;-21
2023/05/07 12:45:18;;;;;;;;;;;;;;;27.05;27.76;101011.50;5090232;28;1039;-20
2023/05/07 12:47:44;;;;;;;;;;;;;;;27.07;27.66;101010.31;5079201;28;1109;-20